sensor_id;sensor_type;location;lat;lon;timestamp;P1;durP1;ratioP1;P2;durP2;ratioP2
25549;SDS011;13444;50.562;7.262;2022-07-24T00:02:05;5.88;;;4.47;;
25549;SDS011;13444;50.562;7.262;2022-07-24T00:04:31;5.20;;;4.55;;
25549;SDS011;13444;50.562;7.262;2022-07-24T00:06:56;5.40;;;4.68;;
25549;SDS011;13444;50.562;7.262;2022-07-24T00:09:22;6.18;;;4.70;;
25549;SDS011;13444;50.562;7.262;2022-07-24T00:11:47;7.20;;;4.60;;
25549;SDS011;13444;50.562;7.262;2022-07-24T00:14:13;5.90;;;4.60;;
25549;SDS011;13444;50.562;7.262;2022-07-24T00:16:38;6.80;;;4.93;;
25549;SDS011;13444;50.562;7.262;2022-07-24T00:19:04;5.50;;;4.50;;
25549;SDS011;13444;50.562;7.262;2022-07-24T00:21:29;4.97;;;4.47;;
25549;SDS011;13444;50.562;7.262;2022-07-24T00:23:55;4.70;;;4.28;;
25549;SDS011;13444;50.562;7.262;2022-07-24T00:26:20;9.23;;;5.80;;
25549;SDS011;13444;50.562;7.262;2022-07-24T00:28:46;6.47;;;5.00;;
25549;SDS011;13444;50.562;7.262;2022-07-24T00:31:13;5.43;;;4.47;;
25549;SDS011;13444;50.562;7.262;2022-07-24T00:33:39;5.72;;;4.63;;
25549;SDS011;13444;50.562;7.262;2022-07-24T00:36:05;6.88;;;4.57;;
25549;SDS011;13444;50.562;7.262;2022-07-24T00:38:31;5.00;;;4.50;;
25549;SDS011;13444;50.562;7.262;2022-07-24T00:40:57;6.88;;;4.72;;
25549;SDS011;13444;50.562;7.262;2022-07-24T00:43:22;9.23;;;4.97;;
25549;SDS011;13444;50.562;7.262;2022-07-24T00:45:48;7.88;;;4.60;;
25549;SDS011;13444;50.562;7.262;2022-07-24T00:48:13;7.65;;;4.55;;
25549;SDS011;13444;50.562;7.262;2022-07-24T00:50:39;6.25;;;5.18;;
25549;SDS011;13444;50.562;7.262;2022-07-24T00:53:05;5.60;;;5.05;;
25549;SDS011;13444;50.562;7.262;2022-07-24T00:55:30;6.40;;;4.97;;
25549;SDS011;13444;50.562;7.262;2022-07-24T00:57:58;6.43;;;5.18;;
25549;SDS011;13444;50.562;7.262;2022-07-24T01:00:24;6.90;;;5.40;;
25549;SDS011;13444;50.562;7.262;2022-07-24T01:02:50;5.68;;;4.80;;
25549;SDS011;13444;50.562;7.262;2022-07-24T01:05:16;6.80;;;4.53;;
25549;SDS011;13444;50.562;7.262;2022-07-24T01:07:42;6.75;;;5.20;;
25549;SDS011;13444;50.562;7.262;2022-07-24T01:10:08;5.32;;;4.55;;
25549;SDS011;13444;50.562;7.262;2022-07-24T01:12:34;5.32;;;4.82;;
25549;SDS011;13444;50.562;7.262;2022-07-24T01:15:02;6.13;;;4.88;;
25549;SDS011;13444;50.562;7.262;2022-07-24T01:17:30;5.90;;;4.93;;
25549;SDS011;13444;50.562;7.262;2022-07-24T01:19:56;8.40;;;5.03;;
25549;SDS011;13444;50.562;7.262;2022-07-24T01:22:23;6.47;;;5.78;;
25549;SDS011;13444;50.562;7.262;2022-07-24T01:24:50;6.68;;;4.78;;
25549;SDS011;13444;50.562;7.262;2022-07-24T01:27:16;6.05;;;5.15;;
25549;SDS011;13444;50.562;7.262;2022-07-24T01:29:42;10.07;;;5.70;;
25549;SDS011;13444;50.562;7.262;2022-07-24T01:32:08;6.43;;;5.15;;
25549;SDS011;13444;50.562;7.262;2022-07-24T01:34:33;8.23;;;5.78;;
25549;SDS011;13444;50.562;7.262;2022-07-24T01:36:59;12.05;;;5.43;;
25549;SDS011;13444;50.562;7.262;2022-07-24T01:39:24;5.97;;;4.90;;
25549;SDS011;13444;50.562;7.262;2022-07-24T01:41:49;7.50;;;4.68;;
25549;SDS011;13444;50.562;7.262;2022-07-24T01:44:15;8.82;;;4.80;;
25549;SDS011;13444;50.562;7.262;2022-07-24T01:46:40;5.13;;;4.63;;
25549;SDS011;13444;50.562;7.262;2022-07-24T01:49:06;8.23;;;5.00;;
25549;SDS011;13444;50.562;7.262;2022-07-24T01:51:32;7.22;;;5.55;;
25549;SDS011;13444;50.562;7.262;2022-07-24T01:53:57;6.93;;;5.00;;
25549;SDS011;13444;50.562;7.262;2022-07-24T01:56:23;8.10;;;5.15;;
25549;SDS011;13444;50.562;7.262;2022-07-24T01:58:48;6.15;;;5.20;;
25549;SDS011;13444;50.562;7.262;2022-07-24T02:01:14;5.90;;;5.00;;
25549;SDS011;13444;50.562;7.262;2022-07-24T02:03:40;6.20;;;5.53;;
25549;SDS011;13444;50.562;7.262;2022-07-24T02:06:05;6.97;;;4.95;;
25549;SDS011;13444;50.562;7.262;2022-07-24T02:08:31;6.28;;;5.32;;
25549;SDS011;13444;50.562;7.262;2022-07-24T02:10:56;7.28;;;5.10;;
25549;SDS011;13444;50.562;7.262;2022-07-24T02:13:22;7.97;;;5.57;;
25549;SDS011;13444;50.562;7.262;2022-07-24T02:15:48;5.70;;;4.70;;
25549;SDS011;13444;50.562;7.262;2022-07-24T02:18:13;5.68;;;5.10;;
25549;SDS011;13444;50.562;7.262;2022-07-24T02:20:39;5.60;;;4.72;;
25549;SDS011;13444;50.562;7.262;2022-07-24T02:23:04;5.90;;;5.30;;
25549;SDS011;13444;50.562;7.262;2022-07-24T02:25:30;6.40;;;5.22;;
25549;SDS011;13444;50.562;7.262;2022-07-24T02:27:55;6.00;;;5.35;;
25549;SDS011;13444;50.562;7.262;2022-07-24T02:30:21;10.02;;;4.95;;
25549;SDS011;13444;50.562;7.262;2022-07-24T02:32:49;6.25;;;5.10;;
25549;SDS011;13444;50.562;7.262;2022-07-24T02:35:14;8.48;;;5.10;;
25549;SDS011;13444;50.562;7.262;2022-07-24T02:37:41;6.00;;;4.72;;
25549;SDS011;13444;50.562;7.262;2022-07-24T02:40:08;7.00;;;5.20;;
25549;SDS011;13444;50.562;7.262;2022-07-24T02:42:35;6.30;;;5.03;;
25549;SDS011;13444;50.562;7.262;2022-07-24T02:45:01;8.75;;;4.75;;
25549;SDS011;13444;50.562;7.262;2022-07-24T02:47:27;7.03;;;4.93;;
25549;SDS011;13444;50.562;7.262;2022-07-24T02:49:53;7.70;;;4.88;;
25549;SDS011;13444;50.562;7.262;2022-07-24T02:52:18;6.93;;;4.90;;
25549;SDS011;13444;50.562;7.262;2022-07-24T02:54:44;8.48;;;5.35;;
25549;SDS011;13444;50.562;7.262;2022-07-24T02:57:09;6.35;;;4.45;;
25549;SDS011;13444;50.562;7.262;2022-07-24T02:59:35;7.57;;;5.32;;
25549;SDS011;13444;50.562;7.262;2022-07-24T03:02:00;5.60;;;5.05;;
25549;SDS011;13444;50.562;7.262;2022-07-24T03:04:26;8.25;;;4.70;;
25549;SDS011;13444;50.562;7.262;2022-07-24T03:06:51;8.32;;;5.20;;
25549;SDS011;13444;50.562;7.262;2022-07-24T03:09:17;5.80;;;5.03;;
25549;SDS011;13444;50.562;7.262;2022-07-24T03:11:42;5.20;;;4.28;;
25549;SDS011;13444;50.562;7.262;2022-07-24T03:14:08;5.82;;;5.18;;
25549;SDS011;13444;50.562;7.262;2022-07-24T03:16:33;5.72;;;4.78;;
25549;SDS011;13444;50.562;7.262;2022-07-24T03:18:59;5.57;;;4.65;;
25549;SDS011;13444;50.562;7.262;2022-07-24T03:21:24;7.00;;;4.82;;
25549;SDS011;13444;50.562;7.262;2022-07-24T03:23:50;9.20;;;5.38;;
25549;SDS011;13444;50.562;7.262;2022-07-24T03:26:15;6.65;;;4.53;;
25549;SDS011;13444;50.562;7.262;2022-07-24T03:28:41;6.47;;;4.97;;
25549;SDS011;13444;50.562;7.262;2022-07-24T03:31:07;6.65;;;5.50;;
25549;SDS011;13444;50.562;7.262;2022-07-24T03:33:32;7.18;;;5.30;;
25549;SDS011;13444;50.562;7.262;2022-07-24T03:35:58;5.20;;;4.70;;
25549;SDS011;13444;50.562;7.262;2022-07-24T03:38:24;6.43;;;4.88;;
25549;SDS011;13444;50.562;7.262;2022-07-24T03:40:50;5.80;;;4.60;;
25549;SDS011;13444;50.562;7.262;2022-07-24T03:43:15;5.28;;;4.60;;
25549;SDS011;13444;50.562;7.262;2022-07-24T03:45:41;6.38;;;4.78;;
25549;SDS011;13444;50.562;7.262;2022-07-24T03:48:06;6.47;;;5.68;;
25549;SDS011;13444;50.562;7.262;2022-07-24T03:50:32;7.43;;;5.20;;
25549;SDS011;13444;50.562;7.262;2022-07-24T03:52:57;8.23;;;5.28;;
25549;SDS011;13444;50.562;7.262;2022-07-24T03:55:23;7.20;;;4.70;;
25549;SDS011;13444;50.562;7.262;2022-07-24T03:57:48;6.00;;;4.45;;
25549;SDS011;13444;50.562;7.262;2022-07-24T04:00:14;6.32;;;4.65;;
25549;SDS011;13444;50.562;7.262;2022-07-24T04:02:41;5.13;;;4.43;;
25549;SDS011;13444;50.562;7.262;2022-07-24T04:05:06;6.40;;;4.80;;
25549;SDS011;13444;50.562;7.262;2022-07-24T04:07:34;7.63;;;5.63;;
25549;SDS011;13444;50.562;7.262;2022-07-24T04:10:00;4.88;;;4.38;;
25549;SDS011;13444;50.562;7.262;2022-07-24T04:12:26;7.65;;;5.50;;
25549;SDS011;13444;50.562;7.262;2022-07-24T04:14:51;5.90;;;5.10;;
25549;SDS011;13444;50.562;7.262;2022-07-24T04:17:17;8.85;;;5.57;;
25549;SDS011;13444;50.562;7.262;2022-07-24T04:19:42;6.65;;;5.70;;
25549;SDS011;13444;50.562;7.262;2022-07-24T04:22:08;7.22;;;5.65;;
25549;SDS011;13444;50.562;7.262;2022-07-24T04:24:33;11.77;;;6.30;;
25549;SDS011;13444;50.562;7.262;2022-07-24T04:26:59;7.10;;;5.18;;
25549;SDS011;13444;50.562;7.262;2022-07-24T04:29:24;9.27;;;5.65;;
25549;SDS011;13444;50.562;7.262;2022-07-24T04:31:50;7.88;;;5.65;;
25549;SDS011;13444;50.562;7.262;2022-07-24T04:34:15;7.65;;;5.95;;
25549;SDS011;13444;50.562;7.262;2022-07-24T04:36:41;7.70;;;6.10;;
25549;SDS011;13444;50.562;7.262;2022-07-24T04:39:07;9.25;;;6.60;;
25549;SDS011;13444;50.562;7.262;2022-07-24T04:41:32;8.27;;;6.80;;
25549;SDS011;13444;50.562;7.262;2022-07-24T04:43:58;8.90;;;6.60;;
25549;SDS011;13444;50.562;7.262;2022-07-24T04:46:23;7.28;;;6.57;;
25549;SDS011;13444;50.562;7.262;2022-07-24T04:48:49;7.93;;;5.68;;
25549;SDS011;13444;50.562;7.262;2022-07-24T04:51:14;7.93;;;6.40;;
25549;SDS011;13444;50.562;7.262;2022-07-24T04:53:40;7.85;;;6.20;;
25549;SDS011;13444;50.562;7.262;2022-07-24T04:56:05;7.40;;;6.25;;
25549;SDS011;13444;50.562;7.262;2022-07-24T04:58:31;8.02;;;6.60;;
25549;SDS011;13444;50.562;7.262;2022-07-24T05:00:57;8.15;;;6.05;;
25549;SDS011;13444;50.562;7.262;2022-07-24T05:03:23;10.25;;;6.35;;
25549;SDS011;13444;50.562;7.262;2022-07-24T05:05:48;6.63;;;5.97;;
25549;SDS011;13444;50.562;7.262;2022-07-24T05:08:14;7.55;;;6.70;;
25549;SDS011;13444;50.562;7.262;2022-07-24T05:10:40;10.93;;;7.22;;
25549;SDS011;13444;50.562;7.262;2022-07-24T05:13:05;7.43;;;6.40;;
25549;SDS011;13444;50.562;7.262;2022-07-24T05:15:31;10.90;;;6.47;;
25549;SDS011;13444;50.562;7.262;2022-07-24T05:17:56;10.10;;;6.80;;
25549;SDS011;13444;50.562;7.262;2022-07-24T05:20:22;10.82;;;6.63;;
25549;SDS011;13444;50.562;7.262;2022-07-24T05:22:48;8.95;;;6.95;;
25549;SDS011;13444;50.562;7.262;2022-07-24T05:25:14;9.02;;;7.35;;
25549;SDS011;13444;50.562;7.262;2022-07-24T05:27:39;10.88;;;7.68;;
25549;SDS011;13444;50.562;7.262;2022-07-24T05:30:05;12.43;;;8.20;;
25549;SDS011;13444;50.562;7.262;2022-07-24T05:32:31;10.48;;;7.78;;
25549;SDS011;13444;50.562;7.262;2022-07-24T05:34:57;8.65;;;6.82;;
25549;SDS011;13444;50.562;7.262;2022-07-24T05:37:22;8.85;;;7.53;;
25549;SDS011;13444;50.562;7.262;2022-07-24T05:39:48;10.60;;;7.22;;
25549;SDS011;13444;50.562;7.262;2022-07-24T05:42:17;9.40;;;7.38;;
25549;SDS011;13444;50.562;7.262;2022-07-24T05:44:45;9.05;;;7.78;;
25549;SDS011;13444;50.562;7.262;2022-07-24T05:47:11;10.45;;;7.15;;
25549;SDS011;13444;50.562;7.262;2022-07-24T05:49:36;12.05;;;8.18;;
25549;SDS011;13444;50.562;7.262;2022-07-24T05:52:02;11.27;;;7.30;;
25549;SDS011;13444;50.562;7.262;2022-07-24T05:54:28;10.07;;;7.85;;
25549;SDS011;13444;50.562;7.262;2022-07-24T05:56:56;11.02;;;8.18;;
25549;SDS011;13444;50.562;7.262;2022-07-24T05:59:21;9.35;;;7.20;;
25549;SDS011;13444;50.562;7.262;2022-07-24T06:01:47;9.98;;;7.88;;
25549;SDS011;13444;50.562;7.262;2022-07-24T06:04:12;8.38;;;7.47;;
25549;SDS011;13444;50.562;7.262;2022-07-24T06:06:38;12.02;;;8.10;;
25549;SDS011;13444;50.562;7.262;2022-07-24T06:09:03;9.90;;;7.78;;
25549;SDS011;13444;50.562;7.262;2022-07-24T06:11:29;11.48;;;8.35;;
25549;SDS011;13444;50.562;7.262;2022-07-24T06:13:55;12.32;;;7.60;;
25549;SDS011;13444;50.562;7.262;2022-07-24T06:16:20;13.25;;;7.60;;
25549;SDS011;13444;50.562;7.262;2022-07-24T06:18:46;12.70;;;7.85;;
25549;SDS011;13444;50.562;7.262;2022-07-24T06:21:11;10.75;;;7.93;;
25549;SDS011;13444;50.562;7.262;2022-07-24T06:23:37;9.85;;;7.10;;
25549;SDS011;13444;50.562;7.262;2022-07-24T06:26:02;9.65;;;6.95;;
25549;SDS011;13444;50.562;7.262;2022-07-24T06:28:31;11.35;;;7.53;;
25549;SDS011;13444;50.562;7.262;2022-07-24T06:30:57;8.90;;;7.13;;
25549;SDS011;13444;50.562;7.262;2022-07-24T06:33:22;7.57;;;6.65;;
25549;SDS011;13444;50.562;7.262;2022-07-24T06:35:48;8.55;;;7.00;;
25549;SDS011;13444;50.562;7.262;2022-07-24T06:38:14;9.73;;;7.35;;
25549;SDS011;13444;50.562;7.262;2022-07-24T06:40:41;10.30;;;6.93;;
25549;SDS011;13444;50.562;7.262;2022-07-24T06:43:07;9.52;;;7.13;;
25549;SDS011;13444;50.562;7.262;2022-07-24T06:45:32;9.75;;;7.20;;
25549;SDS011;13444;50.562;7.262;2022-07-24T06:48:01;9.07;;;6.53;;
25549;SDS011;13444;50.562;7.262;2022-07-24T06:50:27;8.10;;;6.90;;
25549;SDS011;13444;50.562;7.262;2022-07-24T06:52:54;12.45;;;7.15;;
25549;SDS011;13444;50.562;7.262;2022-07-24T06:55:23;7.38;;;6.68;;
25549;SDS011;13444;50.562;7.262;2022-07-24T06:57:48;7.43;;;6.72;;
25549;SDS011;13444;50.562;7.262;2022-07-24T07:00:14;10.10;;;6.53;;
25549;SDS011;13444;50.562;7.262;2022-07-24T07:02:40;8.80;;;6.82;;
25549;SDS011;13444;50.562;7.262;2022-07-24T07:05:06;7.72;;;6.20;;
25549;SDS011;13444;50.562;7.262;2022-07-24T07:07:35;7.65;;;5.97;;
25549;SDS011;13444;50.562;7.262;2022-07-24T07:10:01;6.78;;;5.50;;
25549;SDS011;13444;50.562;7.262;2022-07-24T07:12:27;8.40;;;5.50;;
25549;SDS011;13444;50.562;7.262;2022-07-24T07:14:53;6.95;;;5.30;;
25549;SDS011;13444;50.562;7.262;2022-07-24T07:17:18;6.85;;;5.00;;
25549;SDS011;13444;50.562;7.262;2022-07-24T07:19:44;7.93;;;6.10;;
25549;SDS011;13444;50.562;7.262;2022-07-24T07:22:10;7.47;;;6.05;;
25549;SDS011;13444;50.562;7.262;2022-07-24T07:24:36;8.18;;;5.93;;
25549;SDS011;13444;50.562;7.262;2022-07-24T07:27:02;7.05;;;5.10;;
25549;SDS011;13444;50.562;7.262;2022-07-24T07:29:28;9.25;;;5.57;;
25549;SDS011;13444;50.562;7.262;2022-07-24T07:31:53;6.05;;;5.43;;
25549;SDS011;13444;50.562;7.262;2022-07-24T07:34:19;5.70;;;4.90;;
25549;SDS011;13444;50.562;7.262;2022-07-24T07:36:44;5.60;;;5.00;;
25549;SDS011;13444;50.562;7.262;2022-07-24T07:39:10;6.65;;;4.82;;
25549;SDS011;13444;50.562;7.262;2022-07-24T07:41:36;7.03;;;4.97;;
25549;SDS011;13444;50.562;7.262;2022-07-24T07:44:02;6.63;;;4.88;;
25549;SDS011;13444;50.562;7.262;2022-07-24T07:46:27;6.82;;;4.60;;
25549;SDS011;13444;50.562;7.262;2022-07-24T07:48:54;7.30;;;5.13;;
25549;SDS011;13444;50.562;7.262;2022-07-24T07:51:20;6.82;;;4.55;;
25549;SDS011;13444;50.562;7.262;2022-07-24T07:53:46;5.63;;;4.60;;
25549;SDS011;13444;50.562;7.262;2022-07-24T07:56:11;9.95;;;5.25;;
25549;SDS011;13444;50.562;7.262;2022-07-24T07:58:37;6.88;;;5.20;;
25549;SDS011;13444;50.562;7.262;2022-07-24T08:01:03;5.93;;;5.10;;
25549;SDS011;13444;50.562;7.262;2022-07-24T08:03:29;6.68;;;4.68;;
25549;SDS011;13444;50.562;7.262;2022-07-24T08:05:54;5.50;;;4.30;;
25549;SDS011;13444;50.562;7.262;2022-07-24T08:08:20;10.00;;;4.32;;
25549;SDS011;13444;50.562;7.262;2022-07-24T08:10:45;4.65;;;4.15;;
25549;SDS011;13444;50.562;7.262;2022-07-24T08:13:11;4.78;;;3.83;;
25549;SDS011;13444;50.562;7.262;2022-07-24T08:15:37;6.47;;;4.45;;
25549;SDS011;13444;50.562;7.262;2022-07-24T08:18:03;6.18;;;4.28;;
25549;SDS011;13444;50.562;7.262;2022-07-24T08:20:28;5.00;;;4.20;;
25549;SDS011;13444;50.562;7.262;2022-07-24T08:22:54;7.30;;;4.95;;
25549;SDS011;13444;50.562;7.262;2022-07-24T08:25:20;5.15;;;3.85;;
25549;SDS011;13444;50.562;7.262;2022-07-24T08:27:46;4.78;;;4.00;;
25549;SDS011;13444;50.562;7.262;2022-07-24T08:30:13;6.32;;;4.70;;
25549;SDS011;13444;50.562;7.262;2022-07-24T08:32:39;4.82;;;4.10;;
25549;SDS011;13444;50.562;7.262;2022-07-24T08:35:05;7.82;;;4.53;;
25549;SDS011;13444;50.562;7.262;2022-07-24T08:37:38;6.15;;;3.95;;
25549;SDS011;13444;50.562;7.262;2022-07-24T08:40:05;6.40;;;4.25;;
25549;SDS011;13444;50.562;7.262;2022-07-24T08:42:31;4.95;;;4.13;;
25549;SDS011;13444;50.562;7.262;2022-07-24T08:44:57;7.28;;;3.80;;
25549;SDS011;13444;50.562;7.262;2022-07-24T08:47:24;5.43;;;3.78;;
25549;SDS011;13444;50.562;7.262;2022-07-24T08:49:54;5.50;;;3.88;;
25549;SDS011;13444;50.562;7.262;2022-07-24T08:52:23;4.78;;;3.75;;
25549;SDS011;13444;50.562;7.262;2022-07-24T08:54:49;4.53;;;3.40;;
25549;SDS011;13444;50.562;7.262;2022-07-24T08:57:15;4.43;;;3.47;;
25549;SDS011;13444;50.562;7.262;2022-07-24T08:59:41;7.75;;;4.18;;
25549;SDS011;13444;50.562;7.262;2022-07-24T09:02:07;6.47;;;3.45;;
25549;SDS011;13444;50.562;7.262;2022-07-24T09:06:59;4.85;;;3.70;;
25549;SDS011;13444;50.562;7.262;2022-07-24T09:09:25;6.13;;;3.85;;
25549;SDS011;13444;50.562;7.262;2022-07-24T09:12:02;5.22;;;3.53;;
25549;SDS011;13444;50.562;7.262;2022-07-24T09:14:32;6.10;;;3.50;;
25549;SDS011;13444;50.562;7.262;2022-07-24T09:17:19;7.25;;;3.97;;
25549;SDS011;13444;50.562;7.262;2022-07-24T09:19:47;6.55;;;3.83;;
25549;SDS011;13444;50.562;7.262;2022-07-24T09:22:16;6.38;;;3.83;;
25549;SDS011;13444;50.562;7.262;2022-07-24T09:25:03;3.90;;;3.50;;
25549;SDS011;13444;50.562;7.262;2022-07-24T09:27:45;7.13;;;3.67;;
25549;SDS011;13444;50.562;7.262;2022-07-24T09:30:23;6.38;;;3.70;;
25549;SDS011;13444;50.562;7.262;2022-07-24T09:35:30;6.47;;;3.90;;
25549;SDS011;13444;50.562;7.262;2022-07-24T09:38:05;5.70;;;3.80;;
25549;SDS011;13444;50.562;7.262;2022-07-24T09:40:43;6.20;;;3.63;;
25549;SDS011;13444;50.562;7.262;2022-07-24T09:45:51;7.25;;;3.67;;
25549;SDS011;13444;50.562;7.262;2022-07-24T09:48:28;5.78;;;4.00;;
25549;SDS011;13444;50.562;7.262;2022-07-24T09:50:55;5.78;;;3.42;;
25549;SDS011;13444;50.562;7.262;2022-07-24T09:53:24;5.43;;;3.60;;
25549;SDS011;13444;50.562;7.262;2022-07-24T09:58:29;4.95;;;3.47;;
25549;SDS011;13444;50.562;7.262;2022-07-24T10:00:56;4.15;;;3.50;;
25549;SDS011;13444;50.562;7.262;2022-07-24T10:03:25;6.65;;;3.38;;
25549;SDS011;13444;50.562;7.262;2022-07-24T10:05:56;5.20;;;3.58;;
25549;SDS011;13444;50.562;7.262;2022-07-24T10:08:23;4.57;;;3.92;;
25549;SDS011;13444;50.562;7.262;2022-07-24T10:10:50;5.40;;;3.42;;
25549;SDS011;13444;50.562;7.262;2022-07-24T10:13:16;5.10;;;3.90;;
25549;SDS011;13444;50.562;7.262;2022-07-24T10:19:19;3.72;;;3.30;;
25549;SDS011;13444;50.562;7.262;2022-07-24T10:21:28;4.75;;;3.75;;
25549;SDS011;13444;50.562;7.262;2022-07-24T10:29:07;4.03;;;3.22;;
25549;SDS011;13444;50.562;7.262;2022-07-24T10:31:39;4.57;;;3.65;;
25549;SDS011;13444;50.562;7.262;2022-07-24T10:37:13;4.30;;;3.60;;
25549;SDS011;13444;50.562;7.262;2022-07-24T10:45:36;5.75;;;3.65;;
25549;SDS011;13444;50.562;7.262;2022-07-24T10:51:00;4.60;;;3.55;;
25549;SDS011;13444;50.562;7.262;2022-07-24T10:53:29;3.83;;;3.13;;
25549;SDS011;13444;50.562;7.262;2022-07-24T10:56:39;5.78;;;3.60;;
25549;SDS011;13444;50.562;7.262;2022-07-24T10:59:02;4.60;;;3.10;;
25549;SDS011;13444;50.562;7.262;2022-07-24T11:01:36;5.25;;;3.25;;
25549;SDS011;13444;50.562;7.262;2022-07-24T11:09:23;4.65;;;3.45;;
25549;SDS011;13444;50.562;7.262;2022-07-24T11:14:23;4.10;;;3.45;;
25549;SDS011;13444;50.562;7.262;2022-07-24T11:16:50;3.55;;;3.25;;
25549;SDS011;13444;50.562;7.262;2022-07-24T11:21:45;5.22;;;3.22;;
25549;SDS011;13444;50.562;7.262;2022-07-24T11:24:15;5.53;;;3.42;;
25549;SDS011;13444;50.562;7.262;2022-07-24T11:26:53;3.45;;;3.15;;
25549;SDS011;13444;50.562;7.262;2022-07-24T11:29:36;4.28;;;3.40;;
25549;SDS011;13444;50.562;7.262;2022-07-24T11:32:11;5.43;;;3.05;;
25549;SDS011;13444;50.562;7.262;2022-07-24T11:34:46;3.78;;;3.38;;
25549;SDS011;13444;50.562;7.262;2022-07-24T11:37:13;4.10;;;3.33;;
25549;SDS011;13444;50.562;7.262;2022-07-24T11:39:40;4.85;;;3.50;;
25549;SDS011;13444;50.562;7.262;2022-07-24T11:42:09;4.95;;;3.40;;
25549;SDS011;13444;50.562;7.262;2022-07-24T11:44:37;4.82;;;3.40;;
25549;SDS011;13444;50.562;7.262;2022-07-24T11:47:11;3.80;;;3.50;;
25549;SDS011;13444;50.562;7.262;2022-07-24T11:49:44;6.63;;;3.28;;
25549;SDS011;13444;50.562;7.262;2022-07-24T11:52:20;7.90;;;3.65;;
25549;SDS011;13444;50.562;7.262;2022-07-24T11:54:58;4.13;;;3.20;;
25549;SDS011;13444;50.562;7.262;2022-07-24T11:57:26;7.47;;;3.53;;
25549;SDS011;13444;50.562;7.262;2022-07-24T11:59:54;3.67;;;3.35;;
25549;SDS011;13444;50.562;7.262;2022-07-24T12:02:20;5.78;;;3.55;;
25549;SDS011;13444;50.562;7.262;2022-07-24T12:04:47;4.10;;;3.10;;
25549;SDS011;13444;50.562;7.262;2022-07-24T12:07:24;5.25;;;3.17;;
25549;SDS011;13444;50.562;7.262;2022-07-24T12:09:58;5.32;;;3.15;;
25549;SDS011;13444;50.562;7.262;2022-07-24T12:12:35;4.07;;;3.15;;
25549;SDS011;13444;50.562;7.262;2022-07-24T12:15:04;4.60;;;3.08;;
25549;SDS011;13444;50.562;7.262;2022-07-24T12:17:52;4.68;;;3.38;;
25549;SDS011;13444;50.562;7.262;2022-07-24T12:20:27;4.32;;;3.30;;
25549;SDS011;13444;50.562;7.262;2022-07-24T12:22:54;3.50;;;3.13;;
25549;SDS011;13444;50.562;7.262;2022-07-24T12:25:20;5.63;;;3.03;;
25549;SDS011;13444;50.562;7.262;2022-07-24T12:27:47;4.28;;;3.53;;
25549;SDS011;13444;50.562;7.262;2022-07-24T12:30:20;4.38;;;3.30;;
25549;SDS011;13444;50.562;7.262;2022-07-24T12:33:26;3.70;;;3.15;;
25549;SDS011;13444;50.562;7.262;2022-07-24T12:36:00;3.28;;;2.88;;
25549;SDS011;13444;50.562;7.262;2022-07-24T12:41:08;3.92;;;3.22;;
25549;SDS011;13444;50.562;7.262;2022-07-24T12:46:16;3.42;;;3.13;;
25549;SDS011;13444;50.562;7.262;2022-07-24T12:51:47;5.05;;;3.00;;
25549;SDS011;13444;50.562;7.262;2022-07-24T12:54:31;4.07;;;3.33;;
25549;SDS011;13444;50.562;7.262;2022-07-24T12:56:59;4.32;;;3.47;;
25549;SDS011;13444;50.562;7.262;2022-07-24T12:59:27;3.35;;;2.95;;
25549;SDS011;13444;50.562;7.262;2022-07-24T13:01:55;3.47;;;3.17;;
25549;SDS011;13444;50.562;7.262;2022-07-24T13:04:28;4.00;;;3.22;;
25549;SDS011;13444;50.562;7.262;2022-07-24T13:06:58;4.53;;;3.55;;
25549;SDS011;13444;50.562;7.262;2022-07-24T13:09:25;4.07;;;3.20;;
25549;SDS011;13444;50.562;7.262;2022-07-24T13:11:53;3.60;;;3.30;;
25549;SDS011;13444;50.562;7.262;2022-07-24T13:14:20;6.72;;;2.95;;
25549;SDS011;13444;50.562;7.262;2022-07-24T13:16:48;3.60;;;3.30;;
25549;SDS011;13444;50.562;7.262;2022-07-24T13:19:15;4.90;;;3.15;;
25549;SDS011;13444;50.562;7.262;2022-07-24T13:21:41;4.10;;;2.97;;
25549;SDS011;13444;50.562;7.262;2022-07-24T13:24:08;5.18;;;2.80;;
25549;SDS011;13444;50.562;7.262;2022-07-24T13:26:35;3.22;;;2.95;;
25549;SDS011;13444;50.562;7.262;2022-07-24T13:29:02;3.38;;;2.80;;
25549;SDS011;13444;50.562;7.262;2022-07-24T13:31:28;5.18;;;2.92;;
25549;SDS011;13444;50.562;7.262;2022-07-24T13:33:57;3.60;;;3.00;;
25549;SDS011;13444;50.562;7.262;2022-07-24T13:36:23;4.78;;;3.05;;
25549;SDS011;13444;50.562;7.262;2022-07-24T13:38:49;3.55;;;3.00;;
25549;SDS011;13444;50.562;7.262;2022-07-24T13:41:15;3.95;;;3.03;;
25549;SDS011;13444;50.562;7.262;2022-07-24T13:43:43;3.72;;;3.00;;
25549;SDS011;13444;50.562;7.262;2022-07-24T13:46:10;3.28;;;2.70;;
25549;SDS011;13444;50.562;7.262;2022-07-24T13:48:36;3.08;;;2.78;;
25549;SDS011;13444;50.562;7.262;2022-07-24T13:51:01;5.97;;;3.03;;
25549;SDS011;13444;50.562;7.262;2022-07-24T13:53:27;3.00;;;2.75;;
25549;SDS011;13444;50.562;7.262;2022-07-24T13:55:53;4.22;;;3.15;;
25549;SDS011;13444;50.562;7.262;2022-07-24T13:58:18;3.42;;;3.10;;
25549;SDS011;13444;50.562;7.262;2022-07-24T14:00:44;3.40;;;3.10;;
25549;SDS011;13444;50.562;7.262;2022-07-24T14:03:09;3.70;;;3.22;;
25549;SDS011;13444;50.562;7.262;2022-07-24T14:05:35;3.58;;;3.28;;
25549;SDS011;13444;50.562;7.262;2022-07-24T14:08:00;3.70;;;3.20;;
25549;SDS011;13444;50.562;7.262;2022-07-24T14:10:26;4.90;;;3.22;;
25549;SDS011;13444;50.562;7.262;2022-07-24T14:12:51;4.22;;;3.30;;
25549;SDS011;13444;50.562;7.262;2022-07-24T14:15:17;3.47;;;2.90;;
25549;SDS011;13444;50.562;7.262;2022-07-24T14:17:43;5.00;;;3.25;;
25549;SDS011;13444;50.562;7.262;2022-07-24T14:20:10;3.90;;;3.15;;
25549;SDS011;13444;50.562;7.262;2022-07-24T14:22:37;4.80;;;3.28;;
25549;SDS011;13444;50.562;7.262;2022-07-24T14:25:04;4.85;;;3.40;;
25549;SDS011;13444;50.562;7.262;2022-07-24T14:27:31;4.47;;;3.20;;
25549;SDS011;13444;50.562;7.262;2022-07-24T14:29:57;7.43;;;3.17;;
25549;SDS011;13444;50.562;7.262;2022-07-24T14:32:23;4.38;;;3.25;;
25549;SDS011;13444;50.562;7.262;2022-07-24T14:34:49;4.45;;;3.30;;
25549;SDS011;13444;50.562;7.262;2022-07-24T14:37:15;4.20;;;2.92;;
25549;SDS011;13444;50.562;7.262;2022-07-24T14:39:41;5.68;;;3.17;;
25549;SDS011;13444;50.562;7.262;2022-07-24T14:42:06;3.53;;;3.22;;
25549;SDS011;13444;50.562;7.262;2022-07-24T14:44:32;4.88;;;3.20;;
25549;SDS011;13444;50.562;7.262;2022-07-24T14:46:58;2.88;;;2.63;;
25549;SDS011;13444;50.562;7.262;2022-07-24T14:49:26;3.53;;;3.22;;
25549;SDS011;13444;50.562;7.262;2022-07-24T14:51:52;3.80;;;3.10;;
25549;SDS011;13444;50.562;7.262;2022-07-24T14:54:18;4.82;;;3.20;;
25549;SDS011;13444;50.562;7.262;2022-07-24T14:56:43;5.03;;;3.25;;
25549;SDS011;13444;50.562;7.262;2022-07-24T14:59:09;6.13;;;3.03;;
25549;SDS011;13444;50.562;7.262;2022-07-24T15:01:35;6.05;;;3.20;;
25549;SDS011;13444;50.562;7.262;2022-07-24T15:04:01;3.00;;;2.78;;
25549;SDS011;13444;50.562;7.262;2022-07-24T15:06:27;3.45;;;2.95;;
25549;SDS011;13444;50.562;7.262;2022-07-24T15:08:53;3.47;;;3.17;;
25549;SDS011;13444;50.562;7.262;2022-07-24T15:11:19;5.30;;;3.15;;
25549;SDS011;13444;50.562;7.262;2022-07-24T15:13:47;5.13;;;3.05;;
25549;SDS011;13444;50.562;7.262;2022-07-24T15:16:13;5.25;;;2.67;;
25549;SDS011;13444;50.562;7.262;2022-07-24T15:18:38;3.30;;;3.00;;
25549;SDS011;13444;50.562;7.262;2022-07-24T15:21:04;7.30;;;3.28;;
25549;SDS011;13444;50.562;7.262;2022-07-24T15:23:30;5.30;;;3.00;;
25549;SDS011;13444;50.562;7.262;2022-07-24T15:25:56;3.40;;;2.83;;
25549;SDS011;13444;50.562;7.262;2022-07-24T15:28:21;3.92;;;3.20;;
25549;SDS011;13444;50.562;7.262;2022-07-24T15:30:47;3.50;;;3.13;;
25549;SDS011;13444;50.562;7.262;2022-07-24T15:33:12;2.90;;;2.53;;
25549;SDS011;13444;50.562;7.262;2022-07-24T15:35:38;3.05;;;2.72;;